createdAt,value
2018-05-26T00:01:21.261Z,99.90
2018-05-26T00:03:48.789Z,99.90
2018-05-26T00:06:16.331Z,99.90
2018-05-26T00:08:44.625Z,99.90
2018-05-26T00:11:12.189Z,99.90
2018-05-26T00:13:39.768Z,99.90
2018-05-26T00:16:07.295Z,99.90
2018-05-26T00:18:35.594Z,99.90
2018-05-26T00:21:03.128Z,99.90
2018-05-26T00:23:31.415Z,99.90
2018-05-26T00:25:59.819Z,99.90
2018-05-26T00:28:27.345Z,99.90
2018-05-26T00:30:55.634Z,99.90
2018-05-26T00:33:23.922Z,99.90
2018-05-26T00:35:51.471Z,99.90
2018-05-26T00:38:19.757Z,99.90
2018-05-26T00:40:47.283Z,99.90
2018-05-26T00:43:14.903Z,99.90
2018-05-26T00:45:42.427Z,99.90
2018-05-26T00:48:10.832Z,99.90
2018-05-26T00:50:38.393Z,99.90
2018-05-26T00:53:05.925Z,99.90
2018-05-26T00:55:34.211Z,99.90
2018-05-26T00:58:02.607Z,99.90
2018-05-26T01:00:30.172Z,99.90
2018-05-26T01:02:57.706Z,99.90
2018-05-26T01:05:26.007Z,99.90
2018-05-26T01:07:53.536Z,99.90
2018-05-26T01:10:21.856Z,99.90
2018-05-26T01:12:49.390Z,99.90
2018-05-26T01:15:17.678Z,99.90
2018-05-26T01:17:45.240Z,99.90
2018-05-26T01:20:12.802Z,99.90
2018-05-26T01:22:40.330Z,99.90
2018-05-26T01:25:08.636Z,99.90
2018-05-26T01:27:36.180Z,99.90
2018-05-26T01:30:04.480Z,99.90
2018-05-26T01:32:32.040Z,99.90
2018-05-26T01:34:59.572Z,99.90
2018-05-26T01:37:27.869Z,99.90
2018-05-26T01:39:55.384Z,99.90
2018-05-26T01:42:22.948Z,99.90
2018-05-26T01:44:50.562Z,99.90
2018-05-26T01:47:18.116Z,99.90
2018-05-26T01:49:45.659Z,99.90
2018-05-26T01:52:13.965Z,99.90
2018-05-26T01:54:41.514Z,99.90
2018-05-26T01:57:09.056Z,99.90
2018-05-26T01:59:37.452Z,99.90
2018-05-26T02:02:05.015Z,99.90
2018-05-26T02:04:32.550Z,99.90
2018-05-26T02:07:00.849Z,99.90
2018-05-26T02:09:28.381Z,99.90
2018-05-26T02:11:56.675Z,99.90
2018-05-26T02:14:24.192Z,99.90
2018-05-26T02:16:51.806Z,99.90
2018-05-26T02:19:19.327Z,99.90
2018-05-26T02:21:46.852Z,99.90
2018-05-26T02:24:14.371Z,99.90
2018-05-26T02:26:42.673Z,99.90
2018-05-26T02:29:10.233Z,99.90
2018-05-26T02:31:37.755Z,99.90
2018-05-26T02:34:06.057Z,99.90
2018-05-26T02:36:33.616Z,99.90
2018-05-26T02:39:01.176Z,99.90
2018-05-26T02:41:28.711Z,99.90
2018-05-26T02:43:57.025Z,99.90
2018-05-26T02:46:24.583Z,99.90
2018-05-26T02:48:52.111Z,99.90
2018-05-26T02:51:20.415Z,99.90
2018-05-26T02:53:47.933Z,99.90
2018-05-26T02:56:15.523Z,99.90
2018-05-26T02:58:43.826Z,99.90
2018-05-26T03:01:11.363Z,99.90
2018-05-26T03:03:40.195Z,99.90
2018-05-26T03:06:14.296Z,99.90
2018-05-26T03:08:47.953Z,99.90
2018-05-26T03:11:21.335Z,99.90
2018-05-26T03:13:54.682Z,99.90
2018-05-26T03:16:42.067Z,99.90
2018-05-26T03:19:10.372Z,99.90
2018-05-26T03:21:37.936Z,99.90
2018-05-26T03:24:05.457Z,99.90
2018-05-26T03:26:33.011Z,99.90
2018-05-26T03:29:00.537Z,99.90
2018-05-26T03:31:28.090Z,99.90
2018-05-26T03:33:55.642Z,99.90
2018-05-26T03:36:23.812Z,99.90
2018-05-26T03:38:51.299Z,99.90
2018-05-26T03:41:18.842Z,99.90
2018-05-26T03:43:46.374Z,99.90
2018-05-26T03:46:14.770Z,99.90
2018-05-26T03:48:42.315Z,99.90
2018-05-26T03:51:10.715Z,99.90
2018-05-26T03:53:38.250Z,99.90
2018-05-26T03:56:18.532Z,99.90
2018-05-26T03:58:57.889Z,99.90
2018-05-26T04:01:25.428Z,99.90
2018-05-26T04:03:53.058Z,99.90
2018-05-26T04:06:21.356Z,99.90
2018-05-26T04:08:48.934Z,99.90
2018-05-26T04:11:16.511Z,99.90
2018-05-26T04:13:44.065Z,99.90
2018-05-26T04:16:11.596Z,99.90
2018-05-26T04:18:39.890Z,99.90
2018-05-26T04:21:07.419Z,99.90
2018-05-26T04:23:35.717Z,99.90
2018-05-26T04:26:04.137Z,99.90
2018-05-26T04:28:32.668Z,99.90
2018-05-26T04:31:00.970Z,99.90
2018-05-26T04:33:29.339Z,99.90
2018-05-26T04:35:56.905Z,99.90
2018-05-26T04:38:24.452Z,99.90
2018-05-26T04:40:52.853Z,99.90
2018-05-26T04:43:20.403Z,99.90
2018-05-26T04:45:47.953Z,99.90
2018-05-26T04:48:21.937Z,99.90
2018-05-26T04:50:49.477Z,99.90
2018-05-26T04:53:17.020Z,99.90
2018-05-26T04:55:44.557Z,99.90
2018-05-26T04:58:12.105Z,99.90
2018-05-26T05:00:39.643Z,99.90
2018-05-26T05:03:07.955Z,99.90
2018-05-26T05:05:35.529Z,99.90
2018-05-26T05:08:03.104Z,99.90
2018-05-26T05:10:30.637Z,99.90
2018-05-26T05:12:58.310Z,99.90
2018-05-26T05:15:25.865Z,99.90
2018-05-26T05:17:53.425Z,99.90
2018-05-26T05:20:20.956Z,99.90
2018-05-26T05:22:49.269Z,99.90
2018-05-26T05:25:16.798Z,99.90
2018-05-26T05:27:45.209Z,99.90
2018-05-26T05:30:12.757Z,99.90
2018-05-26T05:32:40.282Z,99.90
2018-05-26T05:35:08.704Z,99.90
2018-05-26T05:37:36.238Z,99.90
2018-05-26T05:40:04.659Z,99.90
2018-05-26T05:42:32.201Z,99.90
2018-05-26T05:44:59.725Z,99.90
2018-05-26T05:47:28.031Z,99.90
2018-05-26T05:49:55.563Z,99.90
2018-05-26T05:52:23.878Z,99.90
2018-05-26T05:54:51.418Z,99.90
2018-05-26T05:57:19.725Z,99.90
2018-05-26T05:59:47.255Z,99.90
2018-05-26T06:02:15.553Z,99.90
2018-05-26T06:04:43.091Z,99.90
2018-05-26T06:07:11.497Z,99.90
2018-05-26T06:09:39.062Z,99.90
2018-05-26T06:12:06.617Z,99.90
2018-05-26T06:14:34.171Z,99.90
2018-05-26T06:17:01.717Z,99.90
2018-05-26T06:19:30.117Z,99.90
2018-05-26T06:21:57.635Z,99.90
2018-05-26T06:24:25.168Z,99.90
2018-05-26T06:26:52.705Z,99.90
2018-05-26T06:29:20.229Z,99.90
2018-05-26T06:31:48.575Z,99.90
2018-05-26T06:34:16.067Z,99.90
2018-05-26T06:36:44.361Z,99.90
2018-05-26T06:39:11.895Z,99.90
2018-05-26T06:41:40.198Z,99.90
2018-05-26T06:44:07.763Z,99.90
2018-05-26T06:46:35.342Z,99.90
2018-05-26T06:49:02.878Z,99.90
2018-05-26T06:51:30.455Z,99.90
2018-05-26T06:53:58.010Z,99.90
2018-05-26T06:56:25.552Z,99.90
2018-05-26T06:58:53.095Z,99.90
2018-05-26T07:01:21.401Z,99.90
2018-05-26T07:03:48.966Z,99.90
2018-05-26T07:06:16.521Z,99.90
2018-05-26T07:08:44.049Z,99.90
2018-05-26T07:11:12.490Z,99.90
2018-05-26T07:13:40.027Z,99.90
2018-05-26T07:16:07.556Z,99.90
2018-05-26T07:18:35.872Z,99.90
2018-05-26T07:21:03.420Z,99.90
2018-05-26T07:23:30.984Z,99.90
2018-05-26T07:25:58.534Z,99.90
2018-05-26T07:28:26.100Z,99.90
2018-05-26T07:30:53.663Z,99.90
2018-05-26T07:33:21.226Z,99.90
2018-05-26T07:35:48.750Z,99.90
2018-05-26T07:38:17.076Z,99.90
2018-05-26T07:40:44.728Z,99.90
2018-05-26T07:43:12.262Z,99.90
2018-05-26T07:45:40.675Z,99.90
2018-05-26T07:48:08.229Z,99.90
2018-05-26T07:50:35.784Z,99.90
2018-05-26T07:53:03.322Z,99.90
2018-05-26T07:55:31.646Z,99.90
2018-05-26T07:57:59.174Z,99.90
2018-05-26T08:00:26.697Z,99.90
2018-05-26T08:02:54.328Z,99.90
2018-05-26T08:05:21.910Z,99.90
2018-05-26T08:07:49.427Z,99.90
2018-05-26T08:10:16.978Z,99.90
2018-05-26T08:12:44.582Z,99.90
2018-05-26T08:15:12.229Z,99.90
2018-05-26T08:17:39.778Z,99.90
2018-05-26T08:20:07.305Z,99.90
2018-05-26T08:22:35.596Z,99.90
2018-05-26T08:25:03.992Z,99.90
2018-05-26T08:27:31.565Z,99.90
2018-05-26T08:29:59.162Z,99.90
2018-05-26T08:32:28.205Z,99.90
2018-05-26T08:34:55.740Z,99.90
2018-05-26T08:37:24.029Z,99.90
2018-05-26T08:39:52.436Z,99.90
2018-05-26T08:42:19.956Z,99.90
2018-05-26T08:44:48.250Z,99.90
2018-05-26T08:47:15.816Z,99.90
2018-05-26T08:49:43.387Z,99.90
2018-05-26T08:52:10.923Z,99.90
2018-05-26T08:54:39.325Z,99.90
2018-05-26T08:57:06.881Z,99.90
2018-05-26T08:59:34.410Z,99.90
2018-05-26T09:02:02.766Z,99.90
2018-05-26T09:04:30.391Z,99.90
2018-05-26T09:06:57.913Z,99.90
2018-05-26T09:09:26.328Z,99.90
2018-05-26T09:11:53.852Z,99.90
2018-05-26T09:14:22.167Z,99.90
2018-05-26T09:16:49.734Z,99.90
2018-05-26T09:19:17.266Z,99.90
2018-05-26T09:21:45.663Z,99.90
2018-05-26T09:24:13.227Z,99.90
2018-05-26T09:26:40.751Z,99.90
2018-05-26T09:29:09.354Z,99.90
2018-05-26T09:31:36.896Z,99.90
2018-05-26T09:34:05.187Z,99.90
2018-05-26T09:36:33.474Z,99.90
2018-05-26T09:39:01.012Z,99.90
2018-05-26T09:41:29.300Z,99.90
2018-05-26T09:43:57.589Z,99.90
2018-05-26T09:46:25.885Z,99.90
2018-05-26T09:48:53.413Z,99.90
2018-05-26T09:51:21.701Z,99.90
2018-05-26T09:53:49.238Z,99.90
2018-05-26T09:56:17.558Z,99.90
2018-05-26T09:58:45.114Z,99.90
2018-05-26T10:01:12.647Z,99.90
2018-05-26T10:03:40.935Z,99.90
2018-05-26T10:06:08.467Z,99.90
2018-05-26T10:08:35.987Z,99.90
2018-05-26T10:11:03.507Z,99.90
2018-05-26T10:13:31.866Z,99.90
2018-05-26T10:15:59.357Z,99.90
2018-05-26T10:18:26.881Z,99.90
2018-05-26T10:20:54.401Z,99.90
2018-05-26T10:23:21.922Z,99.90
2018-05-26T10:25:50.210Z,99.90
2018-05-26T10:28:17.727Z,99.90
2018-05-26T10:30:45.265Z,99.90
2018-05-26T10:33:12.819Z,99.90
2018-05-26T10:35:40.355Z,99.90
2018-05-26T10:38:07.907Z,99.90
2018-05-26T10:40:41.141Z,99.90
2018-05-26T10:43:08.706Z,99.90
2018-05-26T10:45:39.208Z,99.90
2018-05-26T10:48:07.182Z,99.90
2018-05-26T10:50:34.719Z,99.90
2018-05-26T10:53:02.996Z,99.90
2018-05-26T10:55:31.280Z,99.90
2018-05-26T10:57:58.824Z,99.90
2018-05-26T11:00:27.120Z,99.90
2018-05-26T11:02:54.642Z,99.90
2018-05-26T11:05:22.177Z,99.90
2018-05-26T11:07:49.694Z,98.90
2018-05-26T11:10:17.973Z,99.40
2018-05-26T11:12:47.046Z,99.20
2018-05-26T11:15:15.370Z,97.90
2018-05-26T11:17:43.334Z,98.20
2018-05-26T11:20:10.695Z,98.00
2018-05-26T11:22:38.218Z,98.00
2018-05-26T11:25:06.526Z,98.60
2018-05-26T11:27:34.054Z,98.70
2018-05-26T11:30:02.340Z,98.20
2018-05-26T11:32:30.626Z,97.30
2018-05-26T11:34:58.169Z,97.30
2018-05-26T11:37:26.472Z,97.80
2018-05-26T11:39:54.000Z,97.80
2018-05-26T11:42:21.540Z,98.60
2018-05-26T11:44:49.074Z,99.30
2018-05-26T11:47:16.596Z,97.80
2018-05-26T11:49:44.897Z,95.90
2018-05-26T11:52:12.408Z,95.90
2018-05-26T11:54:39.944Z,96.10
2018-05-26T11:57:07.479Z,95.80
2018-05-26T11:59:34.989Z,96.60
2018-05-26T12:02:02.524Z,97.20
2018-05-26T12:04:30.050Z,97.40
2018-05-26T12:06:57.562Z,96.10
2018-05-26T12:09:25.121Z,95.80
2018-05-26T12:11:52.659Z,95.50
2018-05-26T12:14:20.177Z,94.40
2018-05-26T12:16:48.467Z,94.30
2018-05-26T12:19:15.995Z,94.20
2018-05-26T12:21:43.513Z,94.30
2018-05-26T12:24:11.038Z,95.10
2018-05-26T12:26:38.573Z,94.90
2018-05-26T12:29:06.862Z,93.30
2018-05-26T12:31:35.141Z,93.50
2018-05-26T12:34:03.511Z,92.40
2018-05-26T12:39:51.924Z,92.70
2018-05-26T12:42:19.447Z,91.80
2018-05-26T12:44:47.729Z,91.00
2018-05-26T12:47:16.027Z,91.80
2018-05-26T12:49:43.547Z,91.80
2018-05-26T12:52:11.094Z,90.50
2018-05-26T12:54:38.630Z,89.10
2018-05-26T12:57:06.145Z,89.20
2018-05-26T12:59:34.427Z,89.60
2018-05-26T13:02:02.723Z,89.80
2018-05-26T13:04:30.241Z,89.80
2018-05-26T13:06:58.536Z,90.40
2018-05-26T13:09:26.828Z,90.60
2018-05-26T13:11:54.349Z,90.60
2018-05-26T13:14:21.883Z,90.00
2018-05-26T13:16:49.412Z,90.10
2018-05-26T13:19:16.934Z,90.90
2018-05-26T13:21:44.457Z,90.80
2018-05-26T13:24:12.218Z,89.60
2018-05-26T13:26:39.749Z,91.10
2018-05-26T13:29:08.041Z,90.00
2018-05-26T13:31:35.575Z,89.90
2018-05-26T13:34:03.858Z,89.00
2018-05-26T13:36:32.137Z,87.90
2018-05-26T13:39:00.450Z,86.00
2018-05-26T13:41:27.970Z,85.90
2018-05-26T13:43:56.249Z,87.80
2018-05-26T13:46:24.546Z,88.80
2018-05-26T13:48:52.062Z,88.80
2018-05-26T13:51:19.632Z,87.70
2018-05-26T13:53:47.186Z,87.70
2018-05-26T13:56:14.726Z,86.70
2018-05-26T13:58:42.227Z,87.40
2018-05-26T14:01:10.533Z,86.30
2018-05-26T14:03:38.044Z,86.30
2018-05-26T14:06:05.561Z,87.00
2018-05-26T14:08:33.116Z,86.90
2018-05-26T14:11:00.650Z,87.80
2018-05-26T14:13:28.188Z,87.40
2018-05-26T14:15:55.712Z,89.20
2018-05-26T14:18:23.225Z,86.30
2018-05-26T14:20:51.520Z,85.40
2018-05-26T14:23:19.058Z,85.30
2018-05-26T14:25:47.367Z,86.50
2018-05-26T14:28:14.875Z,86.50
2018-05-26T14:30:42.405Z,86.40
2018-05-26T14:33:09.949Z,85.70
2018-05-26T14:35:37.465Z,84.80
2018-05-26T14:38:05.755Z,84.10
2018-05-26T14:40:34.034Z,84.70
2018-05-26T14:43:02.314Z,87.70
2018-05-26T14:45:30.599Z,88.00
2018-05-26T14:47:58.125Z,88.00
2018-05-26T14:50:25.648Z,87.20
2018-05-26T14:52:53.167Z,86.20
2018-05-26T14:55:21.447Z,86.10
2018-05-26T14:57:49.741Z,85.80
2018-05-26T15:00:17.287Z,85.80
2018-05-26T15:02:45.564Z,88.70
2018-05-26T15:05:13.087Z,88.70
2018-05-26T15:07:40.621Z,86.20
2018-05-26T15:10:08.150Z,90.00
2018-05-26T15:12:35.718Z,88.10
2018-05-26T15:15:03.985Z,86.90
2018-05-26T15:17:31.515Z,86.80
2018-05-26T15:19:59.038Z,88.20
2018-05-26T15:22:26.589Z,88.70
2018-05-26T15:24:54.113Z,91.10
2018-05-26T15:27:22.415Z,90.20
2018-05-26T15:29:49.950Z,90.10
2018-05-26T15:32:18.258Z,90.70
2018-05-26T15:34:45.775Z,90.70
2018-05-26T15:37:14.077Z,91.30
2018-05-26T15:39:41.601Z,91.30
2018-05-26T15:42:09.125Z,90.90
2018-05-26T15:44:36.662Z,91.40
2018-05-26T15:47:04.190Z,91.60
2018-05-26T15:49:31.727Z,91.10
2018-05-26T15:51:59.611Z,92.00
2018-05-26T15:54:27.129Z,91.70
2018-05-26T15:56:54.660Z,90.70
2018-05-26T15:59:22.944Z,91.30
2018-05-26T16:01:50.470Z,91.30
2018-05-26T16:04:17.989Z,91.00
2018-05-26T16:06:45.510Z,91.60
2018-05-26T16:09:13.828Z,91.40
2018-05-26T16:11:41.365Z,91.40
2018-05-26T16:14:08.932Z,92.60
2018-05-26T16:16:36.493Z,92.30
2018-05-26T16:19:04.025Z,92.30
2018-05-26T16:21:32.335Z,92.40
2018-05-26T16:23:59.846Z,92.00
2018-05-26T16:26:27.370Z,92.00
2018-05-26T16:28:54.895Z,92.50
2018-05-26T16:31:22.417Z,91.90
2018-05-26T16:33:49.939Z,92.60
2018-05-26T16:36:17.471Z,93.10
2018-05-26T16:38:45.753Z,93.80
2018-05-26T16:41:13.310Z,93.80
2018-05-26T16:43:41.624Z,93.90
2018-05-26T16:46:09.145Z,93.90
2018-05-26T16:48:37.431Z,94.00
2018-05-26T16:51:04.976Z,94.00
2018-05-26T16:53:33.260Z,94.50
2018-05-26T16:56:01.541Z,94.90
2018-05-26T16:58:29.079Z,94.80
2018-05-26T17:00:57.375Z,95.60
2018-05-26T17:03:24.910Z,95.40
2018-05-26T17:05:52.439Z,95.30
2018-05-26T17:08:19.981Z,95.30
2018-05-26T17:10:47.597Z,95.90
2018-05-26T17:13:15.213Z,96.00
2018-05-26T17:15:42.750Z,95.60
2018-05-26T17:18:10.264Z,95.60
2018-05-26T17:20:37.807Z,96.00
2018-05-26T17:23:05.348Z,96.40
2018-05-26T17:25:33.607Z,96.20
2018-05-26T17:28:01.125Z,96.70
2018-05-26T17:30:28.638Z,96.80
2018-05-26T17:32:56.162Z,96.90
2018-05-26T17:35:24.459Z,97.30
2018-05-26T17:37:52.743Z,97.30
2018-05-26T17:40:20.271Z,97.30
2018-05-26T17:42:47.810Z,97.80
2018-05-26T17:45:15.336Z,97.60
2018-05-26T17:47:42.853Z,97.20
2018-05-26T17:50:11.147Z,97.60
2018-05-26T17:52:39.447Z,97.60
2018-05-26T17:55:06.973Z,97.60
2018-05-26T17:57:35.294Z,98.00
2018-05-26T18:00:02.821Z,98.00
2018-05-26T18:02:31.229Z,98.00
2018-05-26T18:04:58.758Z,98.20
2018-05-26T18:07:27.051Z,98.20
2018-05-26T18:09:54.571Z,98.20
2018-05-26T18:12:22.097Z,98.00
2018-05-26T18:14:49.638Z,98.00
2018-05-26T18:17:17.162Z,98.50
2018-05-26T18:19:45.464Z,99.10
2018-05-26T18:22:13.001Z,98.70
2018-05-26T18:24:41.291Z,99.00
2018-05-26T18:27:09.579Z,98.70
2018-05-26T18:29:37.867Z,99.10
2018-05-26T18:32:05.404Z,99.00
2018-05-26T18:34:33.693Z,99.20
2018-05-26T18:37:01.973Z,99.20
2018-05-26T18:39:29.503Z,99.20
2018-05-26T18:41:57.817Z,99.30
2018-05-26T18:44:25.338Z,99.30
2018-05-26T18:46:52.877Z,99.20
2018-05-26T18:49:20.408Z,99.30
2018-05-26T18:51:47.921Z,99.40
2018-05-26T18:54:15.449Z,99.40
2018-05-26T18:56:42.989Z,99.50
2018-05-26T18:59:10.513Z,99.80
2018-05-26T19:01:38.811Z,99.90
2018-05-26T19:04:06.344Z,99.90
2018-05-26T19:06:34.719Z,99.90
2018-05-26T19:09:02.226Z,99.90
2018-05-26T19:11:29.750Z,99.90
2018-05-26T19:13:58.040Z,99.90
2018-05-26T19:16:25.565Z,99.90
2018-05-26T19:18:53.102Z,99.90
2018-05-26T19:21:20.615Z,99.90
2018-05-26T19:23:48.894Z,99.90
2018-05-26T19:26:17.180Z,99.90
2018-05-26T19:28:44.704Z,99.90
2018-05-26T19:31:12.315Z,99.90
2018-05-26T19:33:39.852Z,99.90
2018-05-26T19:36:08.140Z,99.90
2018-05-26T19:38:35.659Z,99.90
2018-05-26T19:41:03.952Z,99.90
2018-05-26T19:43:32.242Z,99.90
2018-05-26T19:46:00.526Z,99.90
2018-05-26T19:48:28.817Z,99.90
2018-05-26T19:50:56.350Z,99.90
2018-05-26T19:53:24.646Z,99.90
2018-05-26T19:55:52.173Z,99.90
2018-05-26T19:58:19.791Z,99.90
2018-05-26T20:00:48.949Z,99.90
2018-05-26T20:03:17.251Z,99.90
2018-05-26T20:05:44.797Z,99.90
2018-05-26T20:08:13.077Z,99.90
2018-05-26T20:10:41.377Z,99.90
2018-05-26T20:13:08.902Z,99.90
2018-05-26T20:15:37.204Z,99.90
2018-05-26T20:18:04.750Z,99.90
2018-05-26T20:20:33.036Z,99.90
2018-05-26T20:23:00.568Z,99.90
2018-05-26T20:25:28.879Z,99.90
2018-05-26T20:27:56.396Z,99.90
2018-05-26T20:30:24.686Z,99.90
2018-05-26T20:32:52.984Z,99.90
2018-05-26T20:35:21.269Z,99.90
2018-05-26T20:37:48.849Z,99.90
2018-05-26T20:40:16.390Z,99.90
2018-05-26T20:42:43.918Z,99.90
2018-05-26T20:45:12.956Z,99.90
2018-05-26T20:47:40.485Z,99.90
2018-05-26T20:50:08.783Z,99.90
2018-05-26T20:52:36.305Z,99.90
2018-05-26T20:55:03.837Z,99.90
2018-05-26T20:57:31.347Z,99.90
2018-05-26T20:59:59.668Z,99.90
2018-05-26T21:02:27.224Z,99.90
2018-05-26T21:04:54.745Z,99.90
2018-05-26T21:07:23.035Z,99.90
2018-05-26T21:09:50.602Z,99.90
2018-05-26T21:12:19.153Z,99.90
2018-05-26T21:14:47.456Z,99.90
2018-05-26T21:17:15.013Z,99.90
2018-05-26T21:19:42.546Z,99.90
2018-05-26T21:22:10.083Z,99.90
2018-05-26T21:24:37.610Z,99.90
2018-05-26T21:27:05.125Z,99.90
2018-05-26T21:29:32.651Z,99.90
2018-05-26T21:32:00.187Z,99.90
2018-05-26T21:34:27.705Z,99.90
2018-05-26T21:36:55.221Z,99.90
2018-05-26T21:39:22.761Z,99.90
2018-05-26T21:41:50.286Z,99.90
2018-05-26T21:44:17.825Z,99.90
2018-05-26T21:46:45.353Z,99.90
2018-05-26T21:49:12.884Z,99.90
2018-05-26T21:51:41.164Z,99.90
2018-05-26T21:54:08.688Z,99.90
2018-05-26T21:56:36.212Z,99.90
2018-05-26T21:59:03.731Z,99.90
2018-05-26T22:01:32.036Z,99.90
2018-05-26T22:03:59.568Z,99.90
2018-05-26T22:06:27.846Z,99.90
2018-05-26T22:08:56.169Z,99.90
2018-05-26T22:11:23.697Z,99.90
2018-05-26T22:13:51.979Z,99.90
2018-05-26T22:16:19.520Z,99.90
2018-05-26T22:18:47.802Z,99.90
2018-05-26T22:21:16.085Z,99.90
2018-05-26T22:23:44.378Z,99.90
2018-05-26T22:26:11.885Z,99.90
2018-05-26T22:28:39.509Z,99.90
2018-05-26T22:31:07.053Z,99.90
2018-05-26T22:33:34.573Z,99.90
2018-05-26T22:36:02.084Z,99.90
2018-05-26T22:38:29.624Z,99.90
2018-05-26T22:40:57.169Z,99.90
2018-05-26T22:43:24.693Z,99.90
2018-05-26T22:45:52.233Z,99.90
2018-05-26T22:48:19.752Z,99.90
2018-05-26T22:50:48.071Z,99.90
2018-05-26T22:53:15.619Z,99.90
2018-05-26T22:55:43.143Z,99.90
2018-05-26T22:58:11.483Z,99.90
2018-05-26T23:00:39.023Z,99.90
2018-05-26T23:03:06.545Z,99.90
2018-05-26T23:05:34.835Z,99.90
2018-05-26T23:08:03.243Z,99.90
2018-05-26T23:10:30.771Z,99.90
2018-05-26T23:12:59.070Z,99.90
2018-05-26T23:15:26.635Z,99.90
2018-05-26T23:17:54.155Z,99.90
2018-05-26T23:20:21.687Z,99.90
2018-05-26T23:22:49.315Z,99.90
2018-05-26T23:25:16.833Z,99.90
2018-05-26T23:27:44.349Z,99.90
2018-05-26T23:30:11.914Z,99.90
2018-05-26T23:32:39.429Z,99.90
2018-05-26T23:35:07.711Z,99.90
2018-05-26T23:37:36.125Z,99.90
2018-05-26T23:40:03.657Z,99.90
2018-05-26T23:42:31.955Z,99.90
2018-05-26T23:44:59.519Z,99.90
2018-05-26T23:47:27.075Z,99.90
2018-05-26T23:49:54.585Z,99.90
2018-05-26T23:52:22.114Z,99.90
2018-05-26T23:54:49.625Z,99.90
2018-05-26T23:57:17.904Z,99.90
2018-05-26T23:59:46.191Z,99.90
